Time;durP1;ratioP1;P1;durP2;ratioP2;P2;SDS_P1;SDS_P2;PMS_P1;PMS_P2;Temp;Humidity;BMP_temperature;BMP_pressure;BME280_temperature;BME280_humidity;BME280_pressure;Samples;Min_cycle;Max_cycle;Signal;HPM_P1;HPM_P2
2020/12/24 00:02:03;;;;;;;1999.90;999.90;;;;;;;9.83;100.00;97517.28;5052153;28;20045;-65
2020/12/24 00:04:29;;;;;;;1999.90;999.90;;;;;;;9.75;100.00;97520.13;5056496;28;20056;-66
2020/12/24 00:06:55;;;;;;;1999.90;999.90;;;;;;;9.41;100.00;97525.66;5057524;28;20045;-65
2020/12/24 00:09:21;;;;;;;1999.90;999.90;;;;;;;9.48;100.00;97523.16;5056037;28;20056;-66
2020/12/24 00:11:47;;;;;;;1999.90;999.90;;;;;;;9.42;100.00;97523.69;5052935;28;20049;-66
2020/12/24 00:14:14;;;;;;;1999.90;999.90;;;;;;;9.52;100.00;97512.25;5054208;28;20090;-66
2020/12/24 00:16:40;;;;;;;1999.90;999.90;;;;;;;9.50;100.00;97514.53;5054557;28;20444;-65
2020/12/24 00:19:06;;;;;;;1999.90;999.90;;;;;;;9.37;100.00;97510.13;5052073;28;20151;-66
2020/12/24 00:21:37;;;;;;;1999.90;999.90;;;;;;;9.23;100.00;97511.19;5055146;28;20525;-64
2020/12/24 00:24:03;;;;;;;1999.90;999.90;;;;;;;9.33;100.00;97509.97;5050787;28;20126;-65
2020/12/24 00:26:29;;;;;;;1999.90;999.90;;;;;;;9.56;100.00;97517.88;5064554;28;20044;-66
2020/12/24 00:28:55;;;;;;;1999.90;999.90;;;;;;;9.65;100.00;97516.66;5049048;28;20051;-66
2020/12/24 00:31:22;;;;;;;1999.90;999.90;;;;;;;9.75;100.00;97514.59;5052072;28;20079;-66
2020/12/24 00:33:48;;;;;;;1999.90;999.90;;;;;;;9.55;100.00;97516.28;5050998;28;20489;-66
2020/12/24 00:36:15;;;;;;;1999.90;999.90;;;;;;;9.63;100.00;97531.94;5054073;28;20037;-66
2020/12/24 00:38:41;;;;;;;1999.90;999.90;;;;;;;9.62;100.00;97524.81;5062752;28;20463;-66
2020/12/24 00:41:07;;;;;;;1999.90;999.90;;;;;;;9.94;100.00;97536.97;5055857;28;20056;-65
2020/12/24 00:43:34;;;;;;;1999.90;999.90;;;;;;;9.54;100.00;97531.22;5054812;28;20053;-67
2020/12/24 00:46:01;;;;;;;1999.90;999.90;;;;;;;9.76;100.00;97528.06;5063033;28;20052;-67
2020/12/24 00:48:35;;;;;;;1999.90;999.90;;;;;;;9.79;100.00;97535.66;5053478;28;20151;-66
2020/12/24 00:51:01;;;;;;;1999.90;999.90;;;;;;;9.76;100.00;97536.34;5050469;28;20111;-67
2020/12/24 00:53:29;;;;;;;1999.90;999.90;;;;;;;9.76;100.00;97528.06;5048524;28;20049;-67
2020/12/24 00:55:55;;;;;;;1999.90;999.90;;;;;;;9.74;100.00;97549.69;5046250;28;20048;-68
2020/12/24 00:58:21;;;;;;;1999.90;999.90;;;;;;;9.81;100.00;97541.69;5053959;28;20044;-66
2020/12/24 01:00:47;;;;;;;1999.90;999.90;;;;;;;10.05;100.00;97540.13;5052625;28;20561;-67
2020/12/24 01:03:13;;;;;;;1999.90;999.90;;;;;;;10.04;100.00;97536.53;5049777;28;20041;-67
2020/12/24 01:05:40;;;;;;;1999.90;999.90;;;;;;;10.03;100.00;97542.41;5051607;28;20049;-67
2020/12/24 01:08:06;;;;;;;1999.90;999.90;;;;;;;9.92;100.00;97535.72;5048011;28;20071;-67
2020/12/24 01:10:32;;;;;;;1999.90;999.90;;;;;;;9.90;100.00;97541.59;5048648;28;20049;-67
2020/12/24 01:12:58;;;;;;;1999.90;999.90;;;;;;;10.04;100.00;97539.31;5046301;28;20457;-67
2020/12/24 01:15:24;;;;;;;1999.90;999.90;;;;;;;10.02;100.00;97535.28;5067207;28;20045;-66
2020/12/24 01:17:50;;;;;;;1999.90;999.90;;;;;;;10.06;100.00;97527.91;5054049;28;20052;-67
2020/12/24 01:20:16;;;;;;;1999.90;999.90;;;;;;;10.36;99.21;97517.53;5053988;28;20468;-66
2020/12/24 01:22:42;;;;;;;1999.90;999.90;;;;;;;10.17;99.42;97526.34;5048439;28;20049;-67
2020/12/24 01:25:09;;;;;;;1999.90;999.90;;;;;;;10.20;99.74;97524.84;5051464;28;20561;-67
2020/12/24 01:27:35;;;;;;;1999.90;999.90;;;;;;;10.01;100.00;97515.13;5046290;28;20131;-67
2020/12/24 01:30:02;;;;;;;1999.90;999.90;;;;;;;10.11;100.00;97529.66;5046488;28;20094;-67
2020/12/24 01:32:28;;;;;;;1999.90;999.90;;;;;;;10.21;99.63;97527.28;5049223;28;20512;-67
2020/12/24 01:34:55;;;;;;;1999.90;999.90;;;;;;;10.03;100.00;97526.66;5067919;28;20076;-65
2020/12/24 01:37:21;;;;;;;1999.90;999.90;;;;;;;10.00;100.00;97521.00;5052548;28;20040;-66
2020/12/24 01:39:47;;;;;;;1999.90;999.90;;;;;;;10.11;100.00;97533.25;5048101;28;20099;-66
2020/12/24 01:42:14;;;;;;;1999.90;999.90;;;;;;;10.15;100.00;97523.13;5047503;28;20044;-66
2020/12/24 01:44:40;;;;;;;1999.90;999.90;;;;;;;10.27;99.18;97522.34;5048075;28;20171;-67
2020/12/24 01:47:06;;;;;;;1999.90;999.90;;;;;;;10.44;98.03;97524.09;5045599;28;20414;-67
2020/12/24 01:49:33;;;;;;;1999.90;999.90;;;;;;;10.69;96.34;97513.03;5047894;28;20127;-66
2020/12/24 01:51:59;;;;;;;1999.90;999.90;;;;;;;10.51;96.46;97510.50;5050502;28;20334;-67
2020/12/24 01:54:26;;;;;;;1999.90;999.90;;;;;;;10.30;97.85;97507.00;5048284;28;20045;-67
2020/12/24 01:56:53;;;;;;;1999.90;999.90;;;;;;;10.30;98.09;97515.28;5047558;28;20404;-66
2020/12/24 01:59:23;;;;;;;1999.90;999.90;;;;;;;10.16;98.58;97485.25;5046598;28;20052;-68
2020/12/24 02:01:51;;;;;;;1999.90;999.90;;;;;;;10.16;97.89;97461.16;5049084;28;20049;-66
2020/12/24 02:04:19;;;;;;;1999.90;999.90;;;;;;;10.03;98.53;97454.84;5043913;28;20064;-65
2020/12/24 02:06:48;;;;;;;1999.90;999.90;;;;;;;10.09;98.59;97455.41;5050984;28;20048;-66
2020/12/24 02:09:15;;;;;;;1999.90;999.90;;;;;;;10.03;98.29;97448.50;5050130;28;20041;-67
2020/12/24 02:11:42;;;;;;;1999.90;999.90;;;;;;;9.97;98.72;97444.38;5050161;28;20356;-67
2020/12/24 02:14:09;;;;;;;1999.90;999.90;;;;;;;10.18;98.07;97466.34;5046400;28;20049;-67
2020/12/24 02:16:37;;;;;;;1999.90;999.90;;;;;;;10.15;97.23;97476.16;5050033;28;20115;-66
2020/12/24 02:19:06;;;;;;;1999.90;999.90;;;;;;;10.14;97.54;97466.25;5051726;28;20095;-67
2020/12/24 02:21:33;;;;;;;1999.90;999.90;;;;;;;10.15;96.97;97473.41;5048143;28;20079;-66
2020/12/24 02:24:00;;;;;;;1999.90;999.90;;;;;;;10.23;97.11;97477.19;5050548;28;20045;-67
2020/12/24 02:26:30;;;;;;;1999.90;999.90;;;;;;;10.05;98.15;97490.41;5049496;28;20485;-66
2020/12/24 02:28:56;;;;;;;1999.90;999.90;;;;;;;10.04;97.31;97492.34;5048602;28;20056;-67
2020/12/24 02:31:23;;;;;;;1999.90;999.90;;;;;;;10.22;96.69;97484.66;5047506;28;20457;-67
2020/12/24 02:33:49;;;;;;;1999.90;999.90;;;;;;;10.11;96.98;97479.91;5046764;28;20576;-67
2020/12/24 02:36:15;;;;;;;1999.90;999.90;;;;;;;9.98;97.44;97476.34;5047118;28;20103;-65
2020/12/24 02:38:42;;;;;;;1999.90;999.90;;;;;;;10.01;97.56;97470.16;5049503;28;20037;-66
2020/12/24 02:41:08;;;;;;;1999.90;999.90;;;;;;;10.31;96.49;97462.44;5046783;28;20052;-66
2020/12/24 02:43:34;;;;;;;1999.90;999.90;;;;;;;10.25;96.15;97457.50;5048263;28;20468;-66
2020/12/24 02:46:00;;;;;;;1999.90;999.90;;;;;;;10.09;96.57;97457.38;5049434;28;20049;-67
2020/12/24 02:48:26;;;;;;;1999.90;999.90;;;;;;;10.08;96.98;97477.84;5048804;28;20456;-66
2020/12/24 02:50:53;;;;;;;1999.90;999.90;;;;;;;10.08;96.50;97467.63;5048772;28;20106;-65
2020/12/24 02:53:19;;;;;;;1999.90;999.90;;;;;;;10.22;96.11;97473.59;5050699;28;20481;-67
2020/12/24 02:55:45;;;;;;;1999.90;999.90;;;;;;;10.25;95.92;97454.75;5050926;28;20041;-66
2020/12/24 02:58:11;;;;;;;1999.90;999.90;;;;;;;10.37;94.90;97468.59;5050537;28;20040;-66
2020/12/24 03:00:38;;;;;;;1999.90;999.90;;;;;;;10.27;95.20;97475.34;5053798;28;20320;-66
2020/12/24 03:03:04;;;;;;;1999.90;999.90;;;;;;;10.23;95.68;97485.47;5048598;28;20456;-67
2020/12/24 03:05:30;;;;;;;1999.90;999.90;;;;;;;10.31;95.68;97481.78;5046532;28;20044;-67
2020/12/24 03:07:57;;;;;;;1999.90;999.90;;;;;;;10.35;95.00;97476.44;5052868;28;20469;-67
2020/12/24 03:10:23;;;;;;;1999.90;999.90;;;;;;;10.32;94.60;97485.38;5049821;28;20044;-67
2020/12/24 03:12:49;;;;;;;1999.90;999.90;;;;;;;10.03;95.82;97496.28;5052873;28;20049;-66
2020/12/24 03:15:16;;;;;;;1999.90;999.90;;;;;;;10.20;95.45;97498.03;5049527;28;20045;-66
2020/12/24 03:17:42;;;;;;;1999.90;999.90;;;;;;;10.15;95.59;97489.16;5048411;28;20099;-67
2020/12/24 03:20:15;;;;;;;1999.90;999.90;;;;;;;10.11;95.63;97482.69;5053248;28;20417;-67
2020/12/24 03:22:41;;;;;;;1999.90;999.90;;;;;;;10.15;95.62;97473.41;5052195;28;20049;-67
2020/12/24 03:25:07;;;;;;;1999.90;999.90;;;;;;;10.10;95.66;97467.28;5055706;28;20051;-67
2020/12/24 03:27:34;;;;;;;1999.90;999.90;;;;;;;10.16;95.64;97458.41;5051790;28;20045;-67
2020/12/24 03:30:00;;;;;;;1999.90;999.90;;;;;;;10.14;95.39;97460.72;5052217;28;20048;-66
2020/12/24 03:32:26;;;;;;;1999.90;999.90;;;;;;;10.09;94.64;97454.63;5048983;28;20052;-67
2020/12/24 03:34:52;;;;;;;1999.90;999.90;;;;;;;10.28;94.63;97448.53;5050222;28;20138;-66
2020/12/24 03:37:18;;;;;;;1999.90;999.90;;;;;;;10.32;94.27;97443.94;5049600;28;20087;-66
2020/12/24 03:39:45;;;;;;;1999.90;999.90;;;;;;;10.32;93.71;97433.66;5049671;28;20052;-67
2020/12/24 03:42:11;;;;;;;1999.90;999.90;;;;;;;10.35;93.97;97410.09;5050972;28;20044;-66
2020/12/24 03:44:37;;;;;;;1999.90;999.90;;;;;;;10.50;92.56;97395.56;5063396;28;20107;-67
2020/12/24 03:47:04;;;;;;;1999.90;999.90;;;;;;;10.46;92.28;97408.47;5048374;28;20049;-67
2020/12/24 03:49:31;;;;;;;1999.90;999.90;;;;;;;10.72;91.84;97402.53;5047157;28;20053;-67
2020/12/24 03:51:57;;;;;;;1999.90;999.90;;;;;;;11.15;89.48;97416.00;5052781;28;20071;-66
2020/12/24 03:54:23;;;;;;;1999.90;999.90;;;;;;;10.97;89.69;97402.47;5050763;28;20052;-66
2020/12/24 03:56:49;;;;;;;1999.90;999.90;;;;;;;11.26;88.14;97392.19;5050132;28;20041;-67
2020/12/24 03:59:15;;;;;;;1999.90;999.90;;;;;;;11.42;87.61;97387.50;5054091;28;20099;-67
2020/12/24 04:01:41;;;;;;;1999.90;999.90;;;;;;;11.21;88.02;97387.72;5050194;28;20064;-68
2020/12/24 04:04:07;;;;;;;1999.90;999.90;;;;;;;10.74;90.14;97393.91;5050353;28;20053;-67
2020/12/24 04:06:35;;;;;;;1999.90;999.90;;;;;;;10.21;92.67;97429.75;5049231;28;20453;-67
2020/12/24 04:09:01;;;;;;;1999.90;999.90;;;;;;;9.94;95.12;97428.47;5048081;28;20053;-67
2020/12/24 04:11:27;;;;;;;1999.90;999.90;;;;;;;9.86;94.71;97428.25;5047214;28;20663;-67
2020/12/24 04:13:53;;;;;;;1999.90;999.90;;;;;;;9.98;94.81;97415.59;5051563;28;20079;-68
2020/12/24 04:16:21;;;;;;;1999.90;999.90;;;;;;;10.54;92.39;97415.84;5055155;28;20499;-66
2020/12/24 04:18:47;;;;;;;1999.90;999.90;;;;;;;10.33;92.30;97426.19;5049965;28;20052;-66
2020/12/24 04:21:14;;;;;;;1999.90;999.90;;;;;;;10.18;93.33;97417.44;5051373;28;20049;-67
2020/12/24 04:23:40;;;;;;;1999.90;999.90;;;;;;;10.06;94.32;97409.16;5048196;28;20102;-67
2020/12/24 04:26:07;;;;;;;1999.90;999.90;;;;;;;9.82;95.08;97419.03;5047115;28;20357;-66
2020/12/24 04:28:35;;;;;;;1999.90;999.90;;;;;;;9.87;95.23;97420.78;5046776;28;20041;-67
2020/12/24 04:31:03;;;;;;;1999.90;999.90;;;;;;;9.90;94.95;97433.06;5051737;28;20057;-67
2020/12/24 04:33:29;;;;;;;1999.90;999.90;;;;;;;9.64;96.45;97448.78;5054575;28;20059;-67
2020/12/24 04:35:55;;;;;;;1999.90;999.90;;;;;;;9.80;96.62;97450.91;5048585;28;20049;-67
2020/12/24 04:38:22;;;;;;;1999.90;999.90;;;;;;;9.83;95.56;97448.25;5050310;28;20280;-67
2020/12/24 04:40:51;;;;;;;1999.90;999.90;;;;;;;10.08;94.95;97440.00;5047821;28;20072;-67
2020/12/24 04:43:20;;;;;;;1999.90;999.90;;;;;;;10.06;94.34;97420.19;5048670;28;20041;-67
2020/12/24 04:45:47;;;;;;;1999.90;999.90;;;;;;;9.93;95.00;97421.34;5045777;28;20044;-67
2020/12/24 04:48:14;;;;;;;1999.90;999.90;;;;;;;10.00;94.93;97413.28;5049938;28;20076;-67
2020/12/24 04:50:42;;;;;;;1999.90;999.90;;;;;;;9.98;94.18;97416.41;5051819;28;20095;-67
2020/12/24 04:53:09;;;;;;;1999.90;999.90;;;;;;;10.16;93.67;97408.69;5050144;28;20044;-67
2020/12/24 04:55:35;;;;;;;1999.90;999.90;;;;;;;10.27;92.47;97411.81;5051010;28;20111;-67
2020/12/24 04:58:01;;;;;;;1999.90;999.90;;;;;;;10.19;92.77;97402.47;5052359;28;20052;-67
2020/12/24 05:00:27;;;;;;;1999.90;999.90;;;;;;;9.93;94.32;97404.78;5047560;28;20056;-67
2020/12/24 05:03:12;;;;;;;1999.90;999.90;;;;;;;9.93;94.87;97408.34;5052582;28;20052;-67
2020/12/24 05:05:39;;;;;;;1999.90;999.90;;;;;;;10.08;93.90;97412.38;5051982;28;20048;-67
2020/12/24 05:08:08;;;;;;;1999.90;999.90;;;;;;;10.25;93.18;97416.06;5051049;28;20111;-67
2020/12/24 05:10:36;;;;;;;1999.90;999.90;;;;;;;10.19;92.73;97416.28;5044276;28;20048;-67
2020/12/24 05:13:16;;;;;;;1999.90;999.90;;;;;;;10.32;92.34;97421.81;5047918;28;20103;-67
2020/12/24 05:15:43;;;;;;;1999.90;999.90;;;;;;;10.41;92.01;97419.75;5046913;28;21000;-67
2020/12/24 05:18:22;;;;;;;1999.90;999.90;;;;;;;10.01;93.48;97434.25;5045943;28;20037;-67
2020/12/24 05:20:50;;;;;;;1999.90;999.90;;;;;;;9.86;94.56;97433.75;5048162;28;20505;-67
2020/12/24 05:23:18;;;;;;;1999.90;999.90;;;;;;;9.79;94.95;97433.50;5047668;28;20041;-67
2020/12/24 05:25:45;;;;;;;1999.90;999.90;;;;;;;9.72;95.30;97441.56;5046627;28;20179;-67
2020/12/24 05:28:22;;;;;;;1999.90;999.90;;;;;;;9.59;96.23;97439.94;5046772;28;20054;-67
2020/12/24 05:30:49;;;;;;;1999.90;999.90;;;;;;;9.73;95.77;97445.94;5053698;28;20049;-67
2020/12/24 05:33:33;;;;;;;1999.90;999.90;;;;;;;9.60;96.71;97424.97;5054581;28;20056;-67
2020/12/24 05:36:20;;;;;;;1999.90;999.90;;;;;;;9.87;95.51;97424.34;5051525;28;20041;-67
2020/12/24 05:38:47;;;;;;;1999.90;999.90;;;;;;;9.68;96.01;97426.84;5047474;28;20112;-67
2020/12/24 05:41:25;;;;;;;1999.90;999.90;;;;;;;9.53;96.62;97431.06;5047242;28;20539;-67
2020/12/24 05:44:15;;;;;;;1999.90;999.90;;;;;;;9.78;96.03;97426.41;5046404;28;20417;-67
2020/12/24 05:46:45;;;;;;;1999.90;999.90;;;;;;;9.95;94.89;97417.09;5043048;28;20037;-67
2020/12/24 05:49:18;;;;;;;1999.90;999.90;;;;;;;9.66;95.66;97418.06;5045766;28;20296;-67
2020/12/24 05:51:57;;;;;;;1999.90;999.90;;;;;;;9.81;95.14;97422.94;5055029;28;20052;-67
2020/12/24 05:54:25;;;;;;;1999.90;999.90;;;;;;;9.76;95.54;97417.63;5049319;28;20501;-67
2020/12/24 05:56:52;;;;;;;1999.90;999.90;;;;;;;10.13;93.78;97422.41;5056290;28;20523;-67
2020/12/24 05:59:24;;;;;;;1999.90;999.90;;;;;;;10.25;93.07;97416.06;5047712;28;20053;-67
2020/12/24 06:01:59;;;;;;;1999.90;999.90;;;;;;;9.83;94.93;97428.13;5047826;28;20535;-67
2020/12/24 06:04:44;;;;;;;1999.90;999.90;;;;;;;9.88;94.89;97425.13;5046259;28;20049;-67
2020/12/24 06:07:19;;;;;;;1999.90;999.90;;;;;;;10.03;93.79;97426.41;5049704;28;20041;-65
2020/12/24 06:09:47;;;;;;;1999.90;999.90;;;;;;;10.15;92.87;97412.63;5049979;28;20071;-67
2020/12/24 06:12:26;;;;;;;1999.90;999.90;;;;;;;10.20;92.19;97406.06;5053288;28;20049;-67
2020/12/24 06:14:57;;;;;;;1999.90;999.90;;;;;;;10.03;93.08;97415.38;5044608;28;20045;-67
2020/12/24 06:17:25;;;;;;;1999.90;999.90;;;;;;;9.81;93.78;97409.16;5046595;28;20103;-67
2020/12/24 06:19:52;;;;;;;1999.90;999.90;;;;;;;9.92;94.19;97409.50;5048783;28;20545;-67
2020/12/24 06:22:20;;;;;;;1999.90;999.90;;;;;;;10.08;92.72;97408.81;5057673;28;20057;-67
2020/12/24 06:24:57;;;;;;;1999.90;999.90;;;;;;;10.08;92.29;97406.88;5056895;28;20048;-66
2020/12/24 06:27:42;;;;;;;1999.90;999.90;;;;;;;9.98;92.96;97402.59;5051929;28;20056;-66
2020/12/24 06:30:19;;;;;;;1999.90;999.90;;;;;;;9.90;93.00;97399.94;5054066;28;20438;-65
2020/12/24 06:32:47;;;;;;;1999.90;999.90;;;;;;;10.13;92.46;97403.84;5049929;28;20045;-66
2020/12/24 06:35:39;;;;;;;1999.90;999.90;;;;;;;10.17;91.76;97415.84;5052710;28;20048;-66
2020/12/24 06:38:11;;;;;;;1999.90;999.90;;;;;;;10.12;92.16;97415.25;5051947;28;20057;-68
2020/12/24 06:40:39;;;;;;;1999.90;999.90;;;;;;;10.39;91.11;97417.34;5054492;28;20052;-67
2020/12/24 06:43:09;;;;;;;1999.90;999.90;;;;;;;10.10;92.12;97417.56;5051063;28;20048;-67
2020/12/24 06:45:36;;;;;;;1999.90;999.90;;;;;;;10.14;91.55;97412.97;5051749;28;20485;-67
2020/12/24 06:48:11;;;;;;;1999.90;999.90;;;;;;;10.27;91.76;97403.53;5051690;28;20539;-67
2020/12/24 06:50:56;;;;;;;1999.90;999.90;;;;;;;10.25;91.64;97413.31;5049965;28;20045;-65
2020/12/24 06:53:23;;;;;;;1999.90;999.90;;;;;;;10.20;91.63;97401.31;5050179;28;20057;-67
2020/12/24 06:56:20;;;;;;;1999.90;999.90;;;;;;;10.13;91.85;97397.53;5050230;28;20090;-67
2020/12/24 06:58:48;;;;;;;1999.90;999.90;;;;;;;10.05;92.34;97402.81;5051092;28;20091;-67
2020/12/24 07:01:22;;;;;;;1999.90;999.90;;;;;;;9.95;92.76;97392.25;5048305;28;20048;-67
2020/12/24 07:03:50;;;;;;;1999.90;999.90;;;;;;;10.13;92.21;97386.50;5045457;28;20052;-67
2020/12/24 07:06:41;;;;;;;1999.90;999.90;;;;;;;9.94;93.03;97395.34;5053271;28;20414;-67
2020/12/24 07:09:08;;;;;;;1999.90;999.90;;;;;;;10.04;93.00;97403.16;5051415;28;20088;-66
2020/12/24 07:11:51;;;;;;;1999.90;999.90;;;;;;;9.95;93.33;97403.28;5050702;28;20460;-66
2020/12/24 07:14:28;;;;;;;1999.90;999.90;;;;;;;9.99;93.46;97406.19;5048740;28;20095;-66
2020/12/24 07:16:56;;;;;;;1999.90;999.90;;;;;;;10.07;94.01;97410.75;5047922;28;20048;-67
2020/12/24 07:19:23;;;;;;;1999.90;999.90;;;;;;;9.80;94.96;97423.28;5053188;28;20048;-67
2020/12/24 07:21:51;;;;;;;1999.90;999.90;;;;;;;9.51;96.79;97423.13;5054252;28;20485;-66
2020/12/24 07:24:26;;;;;;;1999.90;999.90;;;;;;;9.72;97.24;97422.25;5050699;28;20053;-66
2020/12/24 07:26:58;;;;;;;1999.90;999.90;;;;;;;9.59;97.67;97417.88;5050821;28;20044;-66
2020/12/24 07:29:26;;;;;;;1999.90;999.90;;;;;;;9.85;97.80;97414.78;5050813;28;20291;-66
2020/12/24 07:31:53;;;;;;;1999.90;999.90;;;;;;;9.68;98.25;97418.56;5048732;28;20041;-67
2020/12/24 07:34:30;;;;;;;1999.90;999.90;;;;;;;9.69;98.07;97414.63;5052900;28;20049;-66
2020/12/24 07:36:56;;;;;;;1999.90;999.90;;;;;;;9.44;99.88;97405.53;5050256;28;20123;-66
2020/12/24 07:39:23;;;;;;;1999.90;999.90;;;;;;;9.57;99.82;97401.66;5049540;28;20049;-66
2020/12/24 07:41:49;;;;;;;1999.90;999.90;;;;;;;9.38;100.00;97404.94;5051668;28;20125;-66
2020/12/24 07:44:17;;;;;;;1999.90;999.90;;;;;;;9.32;100.00;97409.06;5050719;28;20048;-67
2020/12/24 07:46:47;;;;;;;1999.90;999.90;;;;;;;9.54;100.00;97405.06;5048921;28;20490;-66
2020/12/24 07:49:14;;;;;;;1999.90;999.90;;;;;;;9.43;100.00;97406.66;5048005;28;20044;-66
2020/12/24 07:51:41;;;;;;;1999.90;999.90;;;;;;;9.58;100.00;97410.72;5047075;28;20072;-66
2020/12/24 07:54:12;;;;;;;1999.90;999.90;;;;;;;9.59;100.00;97401.31;5049709;28;20040;-66
2020/12/24 07:56:46;;;;;;;1999.90;999.90;;;;;;;9.57;100.00;97400.81;5051073;28;20113;-66
2020/12/24 07:59:15;;;;;;;1999.90;999.90;;;;;;;9.76;100.00;97400.28;5053205;28;20052;-66
2020/12/24 08:01:42;;;;;;;1999.90;999.90;;;;;;;9.71;100.00;97390.28;5053911;28;20045;-67
2020/12/24 08:04:08;;;;;;;1999.90;999.90;;;;;;;9.48;100.00;97398.97;5051138;28;20057;-67
2020/12/24 08:06:35;;;;;;;1999.90;999.90;;;;;;;9.70;100.00;97402.44;5048151;28;20049;-67
2020/12/24 08:09:09;;;;;;;1999.90;999.90;;;;;;;9.56;100.00;97413.81;5053879;28;20087;-67
2020/12/24 08:11:35;;;;;;;1999.90;999.90;;;;;;;9.65;100.00;97408.22;5053108;28;20397;-66
2020/12/24 08:14:02;;;;;;;1999.90;999.90;;;;;;;9.63;100.00;97419.59;5052824;28;20501;-66
2020/12/24 08:16:30;;;;;;;1999.90;999.90;;;;;;;9.66;100.00;97423.59;5065892;28;20157;-66
2020/12/24 08:19:02;;;;;;;1999.90;999.90;;;;;;;9.70;100.00;97424.53;5057952;28;20552;-66
2020/12/24 08:21:42;;;;;;;1999.90;999.90;;;;;;;9.70;100.00;97430.06;5048909;28;20061;-66
2020/12/24 08:24:10;;;;;;;1999.90;999.90;;;;;;;9.33;100.00;97435.47;5051323;28;20098;-66
2020/12/24 08:26:37;;;;;;;1999.90;999.90;;;;;;;9.29;100.00;97442.81;5053126;28;20037;-66
2020/12/24 08:29:07;;;;;;;1999.90;999.90;;;;;;;9.45;100.00;97446.56;5051561;28;20115;-66
2020/12/24 08:31:39;;;;;;;1999.90;999.90;;;;;;;9.70;100.00;97447.41;5049686;28;20460;-66
2020/12/24 08:34:07;;;;;;;;;;;;;;;9.35;100.00;97447.00;5054361;28;20048;-66
2020/12/24 08:36:42;;;;;;;1999.90;999.90;;;;;;;9.54;100.00;97442.91;5051191;28;19928;-66
2020/12/24 08:39:10;;;;;;;1999.90;999.90;;;;;;;9.32;100.00;97437.44;5048892;28;20218;-66
2020/12/24 08:41:44;;;;;;;1999.90;999.90;;;;;;;9.34;100.00;97445.38;5048465;28;20673;-66
2020/12/24 08:44:10;;;;;;;1999.90;999.90;;;;;;;9.22;100.00;97437.06;5049040;28;20460;-66
2020/12/24 08:46:37;;;;;;;1999.90;999.90;;;;;;;9.38;100.00;97438.03;5047747;28;20449;-66
2020/12/24 08:49:24;;;;;;;1999.90;999.90;;;;;;;9.96;100.00;97437.22;5046705;28;20048;-66
2020/12/24 08:52:14;;;;;;;1999.90;999.90;;;;;;;9.84;100.00;97438.84;5046305;28;20103;-66
2020/12/24 08:55:00;;;;;;;1999.90;999.90;;;;;;;10.09;100.00;97435.28;5048106;28;20056;-66
2020/12/24 08:57:27;;;;;;;1999.90;999.90;;;;;;;10.33;99.38;97434.47;5047339;28;20067;-66
2020/12/24 08:59:58;;;;;;;1999.90;999.90;;;;;;;10.51;96.81;97438.63;5047220;28;20044;-66
2020/12/24 09:02:25;;;;;;;1999.90;999.90;;;;;;;10.16;98.97;97424.47;5050851;28;20086;-66
2020/12/24 09:04:53;;;;;;;1999.90;999.90;;;;;;;10.18;99.10;97430.44;5051276;28;20126;-66
2020/12/24 09:07:27;;;;;;;1999.90;999.90;;;;;;;10.09;99.28;97425.03;5047985;28;20044;-66
2020/12/24 09:10:03;;;;;;;1999.90;999.90;;;;;;;10.31;99.00;97420.19;5055479;28;20384;-66
2020/12/24 09:12:30;;;;;;;1999.90;999.90;;;;;;;10.28;98.63;97420.91;5055914;28;20065;-66
2020/12/24 09:15:08;;;;;;;1999.90;999.90;;;;;;;10.05;99.18;97426.88;5049607;28;20057;-66
2020/12/24 09:17:35;;;;;;;1999.90;999.90;;;;;;;10.23;99.14;97424.69;5049440;28;20045;-66
2020/12/24 09:20:08;;;;;;;1999.90;999.90;;;;;;;10.31;98.72;97428.50;5057561;28;20501;-66
2020/12/24 09:22:35;;;;;;;1999.90;999.90;;;;;;;10.21;99.06;97419.53;5060548;28;20053;-66
2020/12/24 09:25:03;;;;;;;1999.90;999.90;;;;;;;10.39;98.55;97424.81;5060961;28;20106;-66
2020/12/24 09:27:29;;;;;;;1999.90;999.90;;;;;;;10.46;97.70;97421.47;5060301;28;20410;-66
2020/12/24 09:29:55;;;;;;;1999.90;999.90;;;;;;;10.44;98.07;97427.34;5047124;28;20056;-66
2020/12/24 09:32:22;;;;;;;1999.90;999.90;;;;;;;10.39;98.08;97416.53;5056353;28;20501;-66
2020/12/24 09:34:48;;;;;;;1999.90;999.90;;;;;;;10.35;97.81;97426.69;5066876;28;20721;-66
2020/12/24 09:37:14;;;;;;;1999.90;999.90;;;;;;;10.18;98.53;97417.44;5062510;28;20051;-67
2020/12/24 09:39:40;;;;;;;1999.90;999.90;;;;;;;10.39;98.76;97416.53;5054469;28;20044;-66
2020/12/24 09:42:06;;;;;;;1999.90;999.90;;;;;;;10.30;98.40;97419.41;5047371;28;20537;-64
2020/12/24 09:44:32;;;;;;;1999.90;999.90;;;;;;;10.08;99.09;97417.09;5052710;28;20129;-64
2020/12/24 09:46:59;;;;;;;1999.90;999.90;;;;;;;9.76;100.00;97417.63;5047732;28;20044;-64
2020/12/24 09:49:25;;;;;;;1999.90;999.90;;;;;;;9.76;100.00;97411.31;5048461;28;20094;-64
2020/12/24 09:51:51;;;;;;;1999.90;999.90;;;;;;;9.96;100.00;97410.44;5053153;28;20513;-64
2020/12/24 09:54:29;;;;;;;1999.90;999.90;;;;;;;10.15;99.74;97412.63;5048093;28;20056;-64
2020/12/24 09:56:56;;;;;;;1999.90;999.90;;;;;;;9.86;100.00;97414.44;5053779;28;20044;-64
2020/12/24 09:59:23;;;;;;;1999.90;999.90;;;;;;;9.82;100.00;97407.97;5057044;28;20049;-64
2020/12/24 10:01:51;;;;;;;1999.90;999.90;;;;;;;9.74;100.00;97403.38;5059253;28;20060;-64
2020/12/24 10:04:18;;;;;;;1999.90;999.90;;;;;;;9.95;100.00;97391.44;5059142;28;20048;-64
2020/12/24 10:06:44;;;;;;;1999.90;999.90;;;;;;;9.83;100.00;97406.03;5048144;28;20052;-64
2020/12/24 10:09:13;;;;;;;1999.90;999.90;;;;;;;9.92;100.00;97397.66;5047273;28;20049;-64
2020/12/24 10:11:44;;;;;;;1999.90;999.90;;;;;;;9.77;100.00;97397.16;5061447;28;20048;-64
2020/12/24 10:14:10;;;;;;;1999.90;999.90;;;;;;;9.91;100.00;97390.50;5059297;28;20049;-64
2020/12/24 10:16:36;;;;;;;1999.90;999.90;;;;;;;9.64;100.00;97388.06;5061591;28;20044;-64
2020/12/24 10:19:02;;;;;;;1999.90;999.90;;;;;;;9.83;100.00;97389.47;5078499;28;20071;-64
2020/12/24 10:21:29;;;;;;;1999.90;999.90;;;;;;;9.67;100.00;97378.28;5073136;28;20061;-64
2020/12/24 10:24:12;;;;;;;1999.90;999.90;;;;;;;9.68;100.00;97388.19;5054626;28;20759;-65
2020/12/24 10:26:39;;;;;;;1999.90;999.90;;;;;;;9.80;100.00;97379.13;5064976;28;20098;-65
2020/12/24 10:29:05;;;;;;;1999.90;999.90;;;;;;;9.53;100.00;97378.63;5062016;28;20122;-65
2020/12/24 10:31:31;;;;;;;1999.90;999.90;;;;;;;9.75;100.00;97377.41;5058710;28;20051;-65
2020/12/24 10:33:57;;;;;;;1999.90;999.90;;;;;;;9.50;100.00;97377.34;5069039;28;20044;-65
2020/12/24 10:36:24;;;;;;;1999.90;999.90;;;;;;;9.40;100.00;97366.75;5064603;28;20447;-65
2020/12/24 10:38:51;;;;;;;1999.90;999.90;;;;;;;9.68;100.00;97366.13;5064907;28;20052;-65
2020/12/24 10:41:17;;;;;;;1999.90;999.90;;;;;;;9.66;100.00;97357.34;5052703;28;20048;-65
2020/12/24 10:43:44;;;;;;;1999.90;999.90;;;;;;;9.60;100.00;97358.72;5057682;28;20506;-65
2020/12/24 10:46:15;;;;;;;1999.90;999.90;;;;;;;9.76;100.00;97356.91;5061469;28;20527;-65
2020/12/24 10:48:42;;;;;;;1999.90;999.90;;;;;;;9.62;100.00;97350.94;5057135;28;20122;-65
2020/12/24 10:51:08;;;;;;;1999.90;999.90;;;;;;;9.40;100.00;97346.66;5068653;28;20114;-65
2020/12/24 10:53:35;;;;;;;1999.90;999.90;;;;;;;9.62;100.00;97340.69;5066117;28;20098;-65
2020/12/24 10:56:02;;;;;;;1999.90;999.90;;;;;;;9.56;100.00;97350.34;5067685;28;20049;-65
2020/12/24 10:58:28;;;;;;;1999.90;999.90;;;;;;;9.34;100.00;97337.78;5063775;28;20063;-65
2020/12/24 11:00:54;;;;;;;1999.90;999.90;;;;;;;9.43;100.00;97332.16;5058812;28;20061;-65
2020/12/24 11:03:24;;;;;;;1999.90;999.90;;;;;;;9.25;100.00;97328.81;5065380;28;20043;-65